Time;durP1;ratioP1;P1;durP2;ratioP2;P2;SDS_P1;SDS_P2;PMS_P1;PMS_P2;Temp;Humidity;BMP_temperature;BMP_pressure;BME280_temperature;BME280_humidity;BME280_pressure;Samples;Min_cycle;Max_cycle;Signal;HPM_P1;HPM_P2
2021/12/19 00:04:54;;;;;;;0.77;0.60;;;20.20;45.20;;;;;;5015562;28;20042;-72
2021/12/19 00:10:04;;;;;;;1.15;0.52;;;20.20;45.30;;;;;;5016074;28;20084;-72
2021/12/19 00:12:29;;;;;;;0.73;0.60;;;20.20;45.30;;;;;;5015732;28;20021;-72
2021/12/19 00:14:55;;;;;;;0.50;0.40;;;20.20;45.40;;;;;;5015635;28;20160;-72
2021/12/19 00:17:20;;;;;;;0.90;0.70;;;20.20;45.30;;;;;;5013252;28;20069;-72
2021/12/19 00:19:46;;;;;;;0.80;0.75;;;20.20;45.30;;;;;;5014308;28;20022;-72
2021/12/19 00:22:11;;;;;;;0.68;0.65;;;20.20;45.30;;;;;;5015693;28;20033;-72
2021/12/19 00:24:37;;;;;;;0.88;0.70;;;20.20;45.20;;;;;;5015537;28;20504;-72
2021/12/19 00:27:03;;;;;;;0.88;0.60;;;20.20;45.30;;;;;;5015516;28;20029;-72
2021/12/19 00:29:28;;;;;;;0.55;0.52;;;20.20;45.30;;;;;;5014081;28;20113;-72
2021/12/19 00:31:54;;;;;;;0.65;0.60;;;20.20;46.20;;;;;;5014165;28;20112;-72
2021/12/19 00:34:20;;;;;;;1.75;0.80;;;20.20;45.30;;;;;;5015323;28;20025;-72
2021/12/19 00:36:45;;;;;;;0.60;0.60;;;20.20;45.20;;;;;;5015216;28;20033;-72
2021/12/19 00:39:11;;;;;;;0.70;0.60;;;20.20;45.20;;;;;;5013886;28;20530;-72
2021/12/19 00:41:37;;;;;;;0.93;0.85;;;20.20;46.20;;;;;;5013960;28;20108;-72
2021/12/19 00:44:11;;;;;;;1.35;0.70;;;20.20;45.20;;;;;;5015217;28;20049;-72
2021/12/19 00:46:49;;;;;;;1.10;0.75;;;20.20;45.20;;;;;;5015248;28;20096;-72
2021/12/19 00:49:16;;;;;;;1.20;0.70;;;20.20;45.20;;;;;;5015017;28;20026;-72
2021/12/19 00:51:42;;;;;;;1.33;0.90;;;20.20;45.20;;;;;;5015087;28;20036;-72
2021/12/19 00:54:09;;;;;;;0.93;0.57;;;20.20;45.20;;;;;;5014973;28;20421;-72
2021/12/19 00:56:45;;;;;;;1.05;0.70;;;20.20;45.20;;;;;;5013625;28;20022;-72
2021/12/19 00:59:12;;;;;;;0.90;0.80;;;20.20;45.30;;;;;;5014897;28;20105;-72
2021/12/19 01:01:38;;;;;;;0.90;0.80;;;20.20;45.20;;;;;;5013563;28;20022;-72
2021/12/19 01:04:07;;;;;;;0.88;0.70;;;20.20;45.20;;;;;;5013602;28;20058;-72
2021/12/19 01:06:32;;;;;;;1.40;0.90;;;20.20;45.20;;;;;;5014780;28;20053;-72
2021/12/19 01:08:58;;;;;;;1.52;0.85;;;20.20;45.20;;;;;;5014650;28;20076;-72
2021/12/19 01:11:24;;;;;;;1.15;0.93;;;20.20;45.20;;;;;;5014626;28;20080;-72
2021/12/19 01:13:50;;;;;;;1.20;1.00;;;20.20;45.20;;;;;;5014495;28;20048;-72
2021/12/19 01:16:15;;;;;;;1.73;1.08;;;20.20;45.20;;;;;;5014586;28;20367;-72
2021/12/19 01:18:42;;;;;;;1.45;1.10;;;20.20;45.20;;;;;;5014319;28;20018;-72
2021/12/19 01:21:08;;;;;;;1.80;0.90;;;20.20;45.20;;;;;;5014534;28;20022;-72
2021/12/19 01:23:33;;;;;;;1.50;0.88;;;20.20;45.20;;;;;;5014530;28;20022;-72
2021/12/19 01:25:59;;;;;;;1.17;0.88;;;20.20;45.20;;;;;;5014525;28;20501;-72
2021/12/19 01:28:24;;;;;;;1.13;0.88;;;20.20;45.20;;;;;;5014442;28;20071;-72
2021/12/19 01:30:50;;;;;;;1.33;1.02;;;20.20;45.20;;;;;;5013050;28;20037;-72
2021/12/19 01:33:16;;;;;;;1.20;0.90;;;20.20;45.20;;;;;;5012962;28;20026;-72
2021/12/19 01:35:42;;;;;;;1.55;1.20;;;20.20;45.20;;;;;;5014039;28;20030;-72
2021/12/19 01:38:07;;;;;;;1.88;1.05;;;20.20;45.20;;;;;;5014213;28;20382;-72
2021/12/19 01:40:33;;;;;;;1.23;0.82;;;20.20;45.20;;;;;;5014111;28;20026;-72
2021/12/19 01:42:59;;;;;;;1.15;0.90;;;20.20;45.20;;;;;;5014034;28;20048;-72
2021/12/19 01:45:28;;;;;;;1.30;0.93;;;20.20;45.20;;;;;;5014016;28;20101;-72
2021/12/19 01:47:54;;;;;;;1.63;0.90;;;20.20;45.20;;;;;;5012528;28;20068;-72
2021/12/19 01:50:20;;;;;;;1.27;0.90;;;20.20;45.20;;;;;;5013900;28;20034;-72
2021/12/19 01:52:47;;;;;;;1.35;0.98;;;20.10;45.20;;;;;;5013911;28;20059;-72
2021/12/19 01:55:12;;;;;;;1.90;1.17;;;20.10;45.20;;;;;;5013742;28;20386;-72
2021/12/19 01:57:38;;;;;;;1.60;0.95;;;20.10;45.10;;;;;;5013745;28;20022;-72
2021/12/19 02:00:06;;;;;;;1.70;1.15;;;20.20;45.20;;;;;;5012400;28;20033;-72
2021/12/19 02:02:32;;;;;;;1.35;1.10;;;20.20;45.20;;;;;;5013495;28;20021;-72
2021/12/19 02:04:57;;;;;;;1.52;0.85;;;20.10;45.20;;;;;;5013584;28;20032;-72
2021/12/19 02:07:25;;;;;;;1.58;0.90;;;20.10;45.20;;;;;;5013693;28;20424;-72
2021/12/19 02:09:50;;;;;;;0.88;0.77;;;20.10;45.10;;;;;;5013606;28;20033;-72
2021/12/19 02:12:16;;;;;;;1.60;1.08;;;20.10;45.20;;;;;;5013428;28;20021;-72
2021/12/19 02:14:43;;;;;;;1.50;1.10;;;20.10;45.10;;;;;;5013330;28;20030;-72
2021/12/19 02:17:09;;;;;;;1.75;1.02;;;20.10;45.10;;;;;;5013298;28;20026;-72
2021/12/19 02:19:34;;;;;;;1.70;0.90;;;20.10;45.20;;;;;;5012154;28;20036;-72
2021/12/19 02:22:00;;;;;;;1.17;0.90;;;20.10;45.20;;;;;;5013481;28;20026;-72
2021/12/19 02:24:25;;;;;;;2.28;1.33;;;20.10;45.20;;;;;;5013209;28;20034;-72
2021/12/19 02:26:51;;;;;;;2.17;1.00;;;20.10;45.10;;;;;;5013331;28;20034;-72
2021/12/19 02:29:17;;;;;;;1.25;0.90;;;20.20;45.20;;;;;;5013421;28;20156;-72
2021/12/19 02:31:43;;;;;;;1.38;1.00;;;20.10;45.10;;;;;;5013275;28;20022;-72
2021/12/19 02:34:17;;;;;;;1.80;1.10;;;20.10;45.20;;;;;;5012201;28;20476;-72
2021/12/19 02:50:11;;;;;;;1.33;1.10;;;20.10;45.20;;;;;;5013342;28;20037;-72
2021/12/19 02:52:36;;;;;;;1.85;1.08;;;20.10;45.20;;;;;;5012923;28;20022;-72
2021/12/19 02:55:03;;;;;;;1.48;0.90;;;20.10;45.20;;;;;;5012896;28;20052;-72
2021/12/19 02:57:29;;;;;;;1.67;1.00;;;20.10;45.20;;;;;;5011588;28;20021;-72
2021/12/19 02:59:55;;;;;;;1.70;1.20;;;20.10;45.20;;;;;;5012924;28;20018;-72
2021/12/19 03:02:20;;;;;;;2.28;1.20;;;20.10;45.20;;;;;;5012898;28;20022;-72
2021/12/19 03:05:00;;;;;;;1.63;0.90;;;20.10;45.20;;;;;;5012552;28;20044;-72
2021/12/19 03:07:27;;;;;;;1.45;1.00;;;20.10;45.00;;;;;;5011704;28;20033;-72
2021/12/19 03:18:05;;;;;;;1.48;1.08;;;20.10;45.20;;;;;;5012729;28;20066;-72
2021/12/19 03:20:32;;;;;;;1.33;1.00;;;20.10;45.20;;;;;;5012786;28;20150;-72
2021/12/19 03:22:58;;;;;;;1.85;1.15;;;20.10;45.20;;;;;;5012691;28;20015;-72
2021/12/19 03:25:24;;;;;;;2.17;1.38;;;20.10;45.10;;;;;;5012602;28;20136;-72
2021/12/19 03:27:50;;;;;;;1.60;1.10;;;20.10;45.10;;;;;;5015504;28;20029;-72
2021/12/19 03:30:17;;;;;;;1.48;1.20;;;20.10;45.10;;;;;;5016545;28;20026;-72
2021/12/19 03:32:43;;;;;;;1.42;1.10;;;20.10;45.10;;;;;;5016415;28;20025;-72
2021/12/19 03:35:09;;;;;;;1.77;1.20;;;20.10;45.10;;;;;;5016448;28;20022;-72
2021/12/19 03:37:35;;;;;;;2.42;1.35;;;20.10;45.00;;;;;;5016200;28;20026;-72
2021/12/19 03:40:12;;;;;;;2.20;1.00;;;20.10;45.00;;;;;;5016294;28;20402;-72
2021/12/19 03:42:44;;;;;;;2.00;1.23;;;20.10;45.00;;;;;;5016310;28;20018;-72
2021/12/19 03:45:13;;;;;;;1.77;1.02;;;20.10;45.00;;;;;;5016323;28;20434;-72
2021/12/19 03:47:39;;;;;;;1.63;1.08;;;20.10;45.00;;;;;;5016140;28;20029;-72
2021/12/19 03:50:08;;;;;;;2.08;1.17;;;20.00;45.00;;;;;;5016269;28;20030;-72
2021/12/19 03:52:33;;;;;;;1.35;1.00;;;20.00;45.00;;;;;;5016194;28;20521;-72
2021/12/19 03:54:59;;;;;;;1.63;1.10;;;20.10;45.00;;;;;;5016129;28;20022;-72
2021/12/19 03:57:25;;;;;;;1.40;0.90;;;20.10;45.00;;;;;;5016056;28;20646;-72
2021/12/19 03:59:51;;;;;;;2.33;0.98;;;20.10;45.00;;;;;;5015922;28;20105;-72
2021/12/19 04:02:24;;;;;;;1.15;0.85;;;20.00;44.90;;;;;;5014654;28;20117;-72
2021/12/19 04:04:50;;;;;;;1.45;1.05;;;20.00;45.00;;;;;;5014688;28;20092;-72
2021/12/19 04:07:16;;;;;;;1.23;0.90;;;20.00;44.90;;;;;;5015859;28;20105;-72
2021/12/19 04:09:42;;;;;;;1.23;0.90;;;20.00;44.90;;;;;;5016118;28;20022;-72
2021/12/19 04:12:08;;;;;;;1.17;0.90;;;20.10;45.00;;;;;;5015526;28;20044;-72
2021/12/19 04:14:34;;;;;;;1.27;0.90;;;20.10;44.90;;;;;;5015699;28;20018;-72
2021/12/19 04:17:00;;;;;;;1.27;0.95;;;20.10;44.90;;;;;;5009759;28;20120;-72
2021/12/19 04:19:26;;;;;;;1.52;0.90;;;20.00;44.90;;;;;;5015136;28;20129;-72
2021/12/19 04:21:52;;;;;;;1.80;1.13;;;20.10;44.90;;;;;;5015527;28;20363;-72
2021/12/19 04:24:17;;;;;;;1.52;1.00;;;20.00;44.90;;;;;;5015538;28;20033;-72
2021/12/19 04:26:43;;;;;;;0.90;0.80;;;20.00;44.90;;;;;;5014153;28;20441;-72
2021/12/19 04:29:10;;;;;;;1.17;1.00;;;20.00;44.90;;;;;;5014160;28;20026;-72
2021/12/19 04:31:35;;;;;;;1.88;1.10;;;20.00;44.90;;;;;;5015359;28;20482;-72
2021/12/19 04:34:01;;;;;;;1.30;0.90;;;20.00;44.80;;;;;;5015362;28;20024;-72
2021/12/19 04:36:32;;;;;;;1.30;0.90;;;20.00;44.90;;;;;;5015272;28;20030;-72
2021/12/19 04:39:19;;;;;;;1.73;1.00;;;20.00;44.90;;;;;;5014224;28;20022;-72
2021/12/19 05:00:38;;;;;;;1.55;0.90;;;20.00;45.00;;;;;;5015161;28;20061;-72
2021/12/19 05:16:25;;;;;;;1.20;1.00;;;20.00;45.00;;;;;;5014676;28;20061;-72
2021/12/19 05:18:53;;;;;;;1.83;0.85;;;20.00;45.00;;;;;;4999947;28;20031;-72
2021/12/19 05:21:24;;;;;;;1.35;0.90;;;20.00;45.00;;;;;;4994926;28;20061;-72
2021/12/19 05:24:18;;;;;;;1.23;1.00;;;20.00;45.00;;;;;;4994841;28;20026;-72
2021/12/19 05:26:42;;;;;;;1.45;1.02;;;20.00;45.00;;;;;;4994673;28;20491;-72
2021/12/19 05:29:09;;;;;;;1.20;1.00;;;19.90;45.00;;;;;;4994751;28;20438;-72
2021/12/19 05:31:34;;;;;;;1.00;0.80;;;20.00;45.00;;;;;;4993514;28;20410;-72
2021/12/19 05:34:00;;;;;;;1.10;0.73;;;20.00;45.00;;;;;;4994626;28;20030;-72
2021/12/19 05:47:06;;;;;;;1.33;0.90;;;20.00;45.10;;;;;;5013985;28;20107;-72
2021/12/19 05:49:31;;;;;;;1.27;0.90;;;20.00;45.00;;;;;;5013574;28;20462;-72
2021/12/19 05:51:57;;;;;;;1.25;0.80;;;20.00;45.10;;;;;;5013923;28;20359;-72
2021/12/19 05:54:23;;;;;;;1.02;0.80;;;20.00;45.00;;;;;;5013828;28;20437;-72
2021/12/19 05:56:49;;;;;;;2.15;1.00;;;20.00;45.00;;;;;;5013764;28;20026;-72
2021/12/19 05:59:15;;;;;;;1.27;0.70;;;20.00;45.00;;;;;;5013678;28;20018;-71
2021/12/19 06:01:43;;;;;;;1.20;0.90;;;20.00;45.00;;;;;;5013761;28;20025;-72
2021/12/19 06:04:09;;;;;;;1.33;0.90;;;20.00;45.00;;;;;;5013354;28;20124;-72
2021/12/19 06:06:35;;;;;;;1.10;0.80;;;20.00;45.00;;;;;;5013738;28;20534;-72
2021/12/19 06:09:01;;;;;;;1.20;0.80;;;20.00;44.90;;;;;;5013623;28;20115;-72
2021/12/19 06:11:26;;;;;;;1.02;0.75;;;20.00;44.90;;;;;;5012232;28;20374;-72
2021/12/19 06:13:52;;;;;;;1.20;0.90;;;20.00;44.90;;;;;;5013409;28;20026;-72
2021/12/19 06:16:17;;;;;;;0.85;0.70;;;20.00;44.90;;;;;;5013282;28;20030;-72
2021/12/19 06:18:43;;;;;;;0.93;0.80;;;20.00;44.90;;;;;;5013344;28;20093;-72
2021/12/19 06:21:09;;;;;;;0.90;0.77;;;20.00;44.90;;;;;;5013432;28;20026;-72
2021/12/19 06:23:35;;;;;;;1.83;0.88;;;20.00;44.90;;;;;;5013243;28;20021;-72
2021/12/19 06:26:00;;;;;;;1.02;0.75;;;20.00;44.90;;;;;;5013471;28;20080;-72
2021/12/19 06:28:26;;;;;;;0.98;0.70;;;20.00;44.90;;;;;;5013247;28;20021;-72
2021/12/19 06:30:52;;;;;;;0.90;0.73;;;20.00;44.90;;;;;;5013248;28;20022;-72
2021/12/19 06:33:17;;;;;;;1.02;0.70;;;20.00;44.90;;;;;;5013217;28;20467;-72
2021/12/19 06:35:43;;;;;;;0.98;0.68;;;20.00;44.90;;;;;;5013041;28;20030;-72
2021/12/19 06:38:08;;;;;;;0.93;0.70;;;20.00;44.90;;;;;;5013185;28;20368;-72
2021/12/19 06:40:35;;;;;;;1.00;0.77;;;20.00;44.90;;;;;;5012993;28;20022;-72
2021/12/19 06:43:01;;;;;;;1.10;0.80;;;19.90;44.80;;;;;;5013155;28;20053;-72
2021/12/19 06:45:26;;;;;;;1.63;0.80;;;20.00;44.90;;;;;;5012978;28;20486;-72
2021/12/19 06:47:52;;;;;;;1.42;0.90;;;19.90;44.90;;;;;;5013026;28;20073;-72
2021/12/19 06:50:19;;;;;;;0.90;0.70;;;19.90;44.80;;;;;;5012893;28;20026;-72
2021/12/19 06:52:46;;;;;;;1.05;0.70;;;19.90;44.90;;;;;;5011727;28;20033;-72
2021/12/19 06:55:14;;;;;;;0.90;0.80;;;19.90;44.90;;;;;;5012763;28;20033;-72
2021/12/19 06:57:40;;;;;;;1.45;0.85;;;19.90;44.90;;;;;;5012861;28;20128;-72
2021/12/19 07:00:08;;;;;;;0.60;0.50;;;19.90;44.90;;;;;;5012587;28;20120;-72
2021/12/19 07:02:34;;;;;;;1.10;0.80;;;20.00;44.90;;;;;;5012307;28;20021;-72
2021/12/19 07:05:00;;;;;;;1.27;0.88;;;19.90;44.90;;;;;;5011571;28;20478;-72
2021/12/19 07:07:25;;;;;;;0.88;0.70;;;19.90;44.80;;;;;;5013047;28;20030;-72
2021/12/19 07:09:51;;;;;;;0.88;0.60;;;19.90;44.80;;;;;;5011462;28;20110;-72
2021/12/19 07:12:17;;;;;;;0.85;0.60;;;19.90;44.80;;;;;;5012696;28;20481;-72
2021/12/19 07:14:44;;;;;;;0.70;0.52;;;20.00;45.80;;;;;;5011286;28;20022;-72
2021/12/19 07:17:12;;;;;;;0.77;0.60;;;19.90;44.90;;;;;;5012562;28;20026;-72
2021/12/19 07:19:38;;;;;;;0.88;0.57;;;19.90;44.90;;;;;;5012695;28;20385;-72
2021/12/19 07:22:03;;;;;;;0.68;0.50;;;19.90;44.80;;;;;;5011798;28;20010;-72
2021/12/19 07:24:29;;;;;;;1.25;0.90;;;19.90;44.80;;;;;;5012492;28;20125;-72
2021/12/19 07:26:55;;;;;;;0.80;0.57;;;19.90;44.90;;;;;;5012710;28;20018;-72
2021/12/19 07:29:20;;;;;;;1.00;0.70;;;19.90;44.90;;;;;;5011382;28;20113;-72
2021/12/19 07:31:46;;;;;;;1.00;0.77;;;19.90;44.90;;;;;;5012611;28;20037;-72
2021/12/19 07:34:12;;;;;;;1.20;0.70;;;19.90;44.90;;;;;;5012631;28;20030;-72
2021/12/19 07:36:46;;;;;;;0.70;0.60;;;19.90;44.90;;;;;;5012468;28;20444;-72
2021/12/19 07:39:23;;;;;;;1.17;0.70;;;19.90;44.90;;;;;;5012553;28;20525;-72
2021/12/19 07:41:49;;;;;;;1.17;0.68;;;19.90;44.90;;;;;;5011301;28;20038;-72
2021/12/19 07:44:14;;;;;;;0.63;0.60;;;19.90;44.90;;;;;;5012543;28;20485;-72
2021/12/19 07:46:40;;;;;;;0.80;0.70;;;19.90;44.90;;;;;;5012326;28;20057;-72
2021/12/19 07:49:06;;;;;;;1.20;0.68;;;19.90;44.90;;;;;;5012463;28;20054;-72
2021/12/19 07:51:31;;;;;;;0.98;0.70;;;19.90;44.90;;;;;;5012394;28;20033;-72
2021/12/19 07:53:57;;;;;;;1.02;0.70;;;19.90;44.90;;;;;;5012374;28;20436;-72
2021/12/19 07:56:22;;;;;;;1.27;0.73;;;19.90;44.90;;;;;;5012254;28;20077;-72
2021/12/19 07:58:48;;;;;;;1.15;0.80;;;19.90;44.90;;;;;;5012366;28;20076;-72
2021/12/19 08:01:13;;;;;;;0.57;0.57;;;19.90;44.90;;;;;;5012183;28;20030;-72
2021/12/19 08:03:39;;;;;;;0.95;0.65;;;19.90;44.90;;;;;;5011957;28;20034;-72
2021/12/19 08:06:04;;;;;;;0.77;0.60;;;19.90;44.90;;;;;;5012246;28;20080;-72
2021/12/19 08:08:32;;;;;;;0.90;0.52;;;19.90;44.90;;;;;;5011040;28;20032;-72
2021/12/19 08:13:43;;;;;;;0.70;0.57;;;19.90;44.90;;;;;;5015652;28;20041;-72
2021/12/19 08:16:09;;;;;;;1.30;0.60;;;19.90;44.90;;;;;;5012254;28;20034;-72
2021/12/19 08:18:35;;;;;;;0.70;0.60;;;19.90;45.00;;;;;;5014405;28;20029;-72
2021/12/19 08:21:01;;;;;;;0.80;0.70;;;19.90;44.90;;;;;;5015554;28;20023;-72
2021/12/19 08:23:26;;;;;;;0.80;0.60;;;19.90;45.00;;;;;;5015770;28;20034;-72
2021/12/19 08:25:52;;;;;;;0.65;0.50;;;19.90;45.00;;;;;;5015394;28;20033;-72
2021/12/19 08:28:17;;;;;;;0.63;0.50;;;19.90;44.90;;;;;;5015492;28;20025;-72
2021/12/19 08:30:43;;;;;;;0.93;0.68;;;19.90;45.00;;;;;;5015370;28;20030;-72
2021/12/19 08:33:08;;;;;;;0.77;0.60;;;19.90;45.00;;;;;;5015312;28;20397;-72
2021/12/19 08:35:34;;;;;;;0.80;0.60;;;19.90;44.90;;;;;;5015236;28;20501;-72
2021/12/19 08:37:59;;;;;;;1.25;0.85;;;19.90;44.90;;;;;;5015246;28;20487;-72
2021/12/19 08:40:27;;;;;;;1.65;0.70;;;19.90;44.90;;;;;;5015221;28;20493;-72
2021/12/19 08:42:53;;;;;;;0.70;0.60;;;19.90;44.90;;;;;;5015276;28;20017;-72
2021/12/19 08:45:20;;;;;;;0.80;0.70;;;19.90;44.90;;;;;;5013846;28;20297;-72
2021/12/19 08:47:45;;;;;;;1.13;0.50;;;19.90;44.90;;;;;;5015180;28;20022;-72
2021/12/19 08:50:12;;;;;;;0.50;0.50;;;19.90;44.90;;;;;;5015149;28;20053;-72
2021/12/19 08:52:38;;;;;;;1.00;0.57;;;19.90;44.90;;;;;;5015137;28;20477;-72
2021/12/19 08:55:05;;;;;;;0.50;0.43;;;19.90;44.90;;;;;;5014968;28;20085;-72
2021/12/19 08:57:31;;;;;;;1.00;0.50;;;19.90;44.90;;;;;;5014915;28;20022;-72
2021/12/19 08:59:57;;;;;;;0.70;0.60;;;19.90;44.90;;;;;;5014909;28;20100;-72
2021/12/19 09:02:23;;;;;;;0.65;0.50;;;19.90;44.90;;;;;;5014796;28;20459;-72
2021/12/19 09:04:49;;;;;;;0.70;0.55;;;19.90;45.90;;;;;;5014478;28;20074;-72
2021/12/19 09:07:14;;;;;;;0.75;0.50;;;19.90;44.90;;;;;;5014602;28;20493;-72
2021/12/19 09:09:40;;;;;;;0.80;0.60;;;19.90;44.90;;;;;;5013575;28;20041;-72
2021/12/19 09:12:06;;;;;;;0.60;0.50;;;19.90;44.90;;;;;;5014559;28;20018;-72
2021/12/19 09:14:32;;;;;;;0.60;0.45;;;19.90;44.90;;;;;;5014520;28;20032;-72
2021/12/19 09:16:57;;;;;;;0.40;0.35;;;19.90;44.90;;;;;;5014181;28;20390;-72
2021/12/19 09:19:25;;;;;;;0.47;0.30;;;19.90;44.90;;;;;;5014392;28;20505;-72
2021/12/19 09:21:51;;;;;;;0.77;0.40;;;19.90;44.90;;;;;;5013173;28;20017;-72
2021/12/19 09:24:16;;;;;;;0.47;0.40;;;19.90;44.90;;;;;;5013714;28;20044;-72
2021/12/19 09:26:42;;;;;;;0.90;0.55;;;19.90;44.90;;;;;;5014202;28;20026;-72
2021/12/19 09:29:08;;;;;;;0.75;0.50;;;19.90;44.90;;;;;;5013052;28;20022;-72
2021/12/19 09:31:34;;;;;;;0.50;0.47;;;19.90;45.00;;;;;;5014176;28;20026;-72
2021/12/19 09:33:59;;;;;;;0.95;0.50;;;19.90;44.90;;;;;;5014253;28;20024;-72
2021/12/19 09:36:25;;;;;;;0.90;0.50;;;19.90;44.90;;;;;;5012719;28;20398;-72
2021/12/19 09:38:50;;;;;;;1.00;0.50;;;19.90;45.40;;;;;;5012936;28;20018;-72
2021/12/19 09:41:28;;;;;;;0.60;0.50;;;19.90;44.90;;;;;;5014211;28;20046;-72
2021/12/19 09:43:54;;;;;;;0.70;0.50;;;19.90;45.00;;;;;;5014022;28;20033;-72
2021/12/19 09:46:22;;;;;;;0.52;0.50;;;19.90;45.00;;;;;;5013968;28;20104;-72
2021/12/19 09:48:48;;;;;;;0.45;0.30;;;19.90;44.90;;;;;;5013958;28;20026;-72
2021/12/19 09:51:16;;;;;;;0.40;0.40;;;19.90;44.90;;;;;;5013915;28;20034;-72
2021/12/19 09:53:43;;;;;;;0.43;0.40;;;19.90;44.90;;;;;;5013807;28;20050;-72
2021/12/19 09:56:10;;;;;;;0.55;0.40;;;19.90;44.90;;;;;;5013683;28;20136;-72
2021/12/19 09:58:37;;;;;;;0.60;0.40;;;19.90;44.90;;;;;;5013732;28;20050;-72
2021/12/19 10:01:05;;;;;;;0.60;0.30;;;19.90;45.00;;;;;;5012493;28;20022;-72
2021/12/19 10:03:32;;;;;;;0.70;0.30;;;19.90;45.00;;;;;;5013265;28;20113;-72
2021/12/19 10:06:17;;;;;;;0.57;0.40;;;19.90;45.00;;;;;;5013639;28;20057;-72
2021/12/19 10:08:46;;;;;;;0.47;0.30;;;20.00;44.90;;;;;;5013936;28;20029;-72
2021/12/19 10:11:42;;;;;;;0.47;0.40;;;19.90;45.00;;;;;;5012362;28;20383;-72
2021/12/19 10:14:23;;;;;;;0.30;0.30;;;19.90;44.90;;;;;;5012333;28;20057;-72
2021/12/19 10:16:49;;;;;;;0.30;0.30;;;19.90;45.00;;;;;;5013215;28;20068;-72
2021/12/19 10:19:14;;;;;;;0.73;0.40;;;19.90;45.00;;;;;;5013527;28;20474;-72
2021/12/19 10:21:40;;;;;;;0.60;0.30;;;19.90;45.00;;;;;;5013363;28;20033;-72
2021/12/19 10:24:06;;;;;;;0.40;0.40;;;19.90;45.10;;;;;;5013282;28;20064;-72
2021/12/19 10:26:44;;;;;;;0.35;0.35;;;19.90;45.10;;;;;;5013399;28;20452;-72
2021/12/19 10:29:10;;;;;;;0.47;0.40;;;19.90;45.00;;;;;;5013204;28;20056;-72
2021/12/19 10:31:37;;;;;;;0.40;0.20;;;19.90;45.10;;;;;;5013374;28;20040;-72
2021/12/19 10:34:22;;;;;;;0.40;0.20;;;19.90;45.10;;;;;;5013138;28;20068;-72
2021/12/19 10:36:48;;;;;;;0.50;0.38;;;19.90;45.00;;;;;;5011111;28;20026;-72
2021/12/19 10:39:17;;;;;;;0.50;0.43;;;19.90;45.10;;;;;;5012046;28;20152;-72
2021/12/19 10:41:43;;;;;;;0.40;0.40;;;19.90;45.00;;;;;;5013164;28;20520;-72
2021/12/19 10:45:29;;;;;;;0.25;0.25;;;19.90;45.10;;;;;;5012061;28;20018;-72
2021/12/19 10:47:18;;;;;;;0.55;0.32;;;19.90;45.10;;;;;;5012929;28;20030;-72
2021/12/19 10:49:44;;;;;;;0.57;0.35;;;20.00;45.10;;;;;;5013118;28;20540;-72
2021/12/19 10:52:09;;;;;;;0.32;0.20;;;19.90;45.20;;;;;;5013145;28;20101;-72
2021/12/19 10:54:35;;;;;;;0.50;0.43;;;19.90;45.10;;;;;;5012923;28;20101;-72
2021/12/19 10:57:09;;;;;;;0.22;0.22;;;20.00;45.20;;;;;;5012897;28;20022;-72
2021/12/19 10:59:35;;;;;;;0.28;0.28;;;19.90;45.10;;;;;;5012900;28;20025;-72
2021/12/19 11:02:01;;;;;;;0.40;0.30;;;19.90;45.10;;;;;;5012937;28;20022;-72
2021/12/19 11:04:27;;;;;;;0.40;0.30;;;19.90;45.10;;;;;;5012320;28;20049;-72
2021/12/19 11:06:59;;;;;;;0.40;0.20;;;19.90;45.10;;;;;;5012828;28;20056;-72
2021/12/19 11:09:37;;;;;;;0.30;0.30;;;19.90;45.00;;;;;;5011826;28;20030;-72
2021/12/19 11:12:07;;;;;;;0.32;0.20;;;20.00;45.10;;;;;;5012789;28;20053;-72
2021/12/19 11:14:40;;;;;;;0.38;0.35;;;19.90;45.10;;;;;;5012644;28;20036;-72
2021/12/19 11:17:09;;;;;;;0.22;0.22;;;19.90;45.10;;;;;;5012473;28;20022;-72
2021/12/19 11:19:36;;;;;;;0.22;0.20;;;19.90;45.10;;;;;;5011592;28;20037;-72
2021/12/19 11:22:02;;;;;;;0.52;0.35;;;19.90;45.10;;;;;;5012679;28;20478;-72
2021/12/19 11:24:27;;;;;;;0.20;0.20;;;19.90;45.10;;;;;;5012542;28;20413;-72
2021/12/19 11:26:56;;;;;;;0.32;0.20;;;19.90;45.10;;;;;;5012659;28;20045;-72
2021/12/19 11:29:23;;;;;;;0.20;0.10;;;20.00;45.20;;;;;;5011222;28;20029;-72
2021/12/19 11:31:57;;;;;;;0.35;0.30;;;19.90;45.00;;;;;;5011474;28;20077;-72
2021/12/19 11:34:43;;;;;;;0.82;0.30;;;20.00;45.20;;;;;;5012513;28;20030;-72
2021/12/19 11:37:13;;;;;;;0.77;0.30;;;20.00;45.10;;;;;;5012537;28;20028;-72
2021/12/19 11:39:42;;;;;;;0.38;0.30;;;19.90;45.10;;;;;;5012407;28;20536;-72
2021/12/19 11:42:16;;;;;;;0.28;0.22;;;19.90;45.20;;;;;;5012484;28;20474;-72
2021/12/19 11:44:50;;;;;;;0.60;0.30;;;19.90;45.00;;;;;;5012411;28;20076;-72
2021/12/19 11:47:35;;;;;;;0.43;0.40;;;19.90;45.10;;;;;;5013599;28;20033;-72
2021/12/19 11:50:25;;;;;;;0.30;0.30;;;20.00;45.10;;;;;;5015058;28;20686;-72
2021/12/19 11:52:53;;;;;;;0.38;0.30;;;20.00;45.20;;;;;;5016195;28;20077;-72
2021/12/19 11:55:23;;;;;;;0.45;0.20;;;19.90;45.20;;;;;;5015847;28;20092;-72
2021/12/19 11:58:07;;;;;;;0.20;0.20;;;19.90;45.20;;;;;;5016129;28;20470;-72
2021/12/19 12:00:34;;;;;;;0.40;0.38;;;20.00;45.20;;;;;;5016121;28;20041;-72
2021/12/19 12:03:11;;;;;;;0.50;0.30;;;19.90;45.20;;;;;;5015661;28;20121;-72
2021/12/19 12:05:38;;;;;;;0.40;0.35;;;19.90;45.20;;;;;;5015972;28;20444;-72
2021/12/19 12:08:10;;;;;;;0.40;0.20;;;20.00;45.20;;;;;;5016206;28;20049;-72
2021/12/19 12:11:04;;;;;;;0.30;0.30;;;19.90;45.20;;;;;;5015954;28;20036;-72
2021/12/19 12:13:33;;;;;;;0.20;0.20;;;20.00;45.20;;;;;;4995924;28;20037;-72
2021/12/19 12:16:34;;;;;;;0.65;0.40;;;19.90;45.20;;;;;;4996050;28;20022;-72
2021/12/19 12:19:02;;;;;;;0.38;0.30;;;19.90;45.20;;;;;;5011463;28;20038;-72
2021/12/19 12:21:34;;;;;;;0.43;0.20;;;19.90;45.20;;;;;;5015601;28;20018;-72
2021/12/19 12:24:20;;;;;;;0.73;0.32;;;19.90;45.20;;;;;;5014287;28;20030;-72
2021/12/19 12:26:59;;;;;;;0.60;0.40;;;20.00;45.20;;;;;;5015197;28;20112;-72
2021/12/19 12:29:25;;;;;;;0.32;0.30;;;19.90;45.20;;;;;;5014137;28;20509;-72
2021/12/19 12:31:52;;;;;;;0.40;0.30;;;19.90;45.20;;;;;;5015472;28;20022;-72
2021/12/19 12:34:18;;;;;;;0.30;0.30;;;19.90;45.20;;;;;;5015296;28;20088;-72
2021/12/19 12:36:45;;;;;;;0.40;0.30;;;19.90;45.20;;;;;;5015265;28;20088;-72
2021/12/19 12:39:23;;;;;;;0.50;0.22;;;20.00;45.20;;;;;;5015159;28;20026;-72
2021/12/19 12:41:59;;;;;;;0.95;0.40;;;19.90;45.20;;;;;;5015262;28;20041;-72
2021/12/19 12:44:25;;;;;;;0.82;0.40;;;19.90;45.20;;;;;;5015172;28;20030;-72
2021/12/19 12:46:51;;;;;;;0.60;0.30;;;19.90;45.20;;;;;;5013885;28;20585;-72
2021/12/19 12:49:21;;;;;;;0.47;0.30;;;19.90;45.20;;;;;;5014931;28;20120;-72
2021/12/19 12:51:56;;;;;;;0.75;0.40;;;20.00;45.30;;;;;;5015011;28;20025;-72
2021/12/19 12:54:34;;;;;;;0.90;0.40;;;20.00;45.20;;;;;;5014828;28;20026;-72
2021/12/19 12:57:04;;;;;;;0.50;0.35;;;19.90;45.20;;;;;;5014988;28;20022;-72
2021/12/19 12:59:38;;;;;;;0.60;0.35;;;19.90;45.20;;;;;;5013894;28;20482;-72
2021/12/19 13:02:10;;;;;;;0.50;0.40;;;19.90;45.20;;;;;;5014982;28;20526;-72
2021/12/19 13:04:37;;;;;;;0.82;0.30;;;19.90;45.20;;;;;;5014483;28;20096;-72
2021/12/19 13:07:05;;;;;;;1.05;0.30;;;19.90;45.20;;;;;;5014840;28;20474;-72
2021/12/19 13:09:43;;;;;;;0.52;0.40;;;19.90;45.20;;;;;;5014641;28;20022;-71
2021/12/19 13:12:11;;;;;;;1.10;0.43;;;19.90;45.20;;;;;;5013420;28;20500;-72
2021/12/19 13:14:43;;;;;;;0.80;0.30;;;19.90;45.20;;;;;;5014647;28;20029;-72
2021/12/19 13:17:15;;;;;;;0.63;0.35;;;19.90;45.20;;;;;;5014422;28;20113;-72
2021/12/19 13:19:51;;;;;;;0.95;0.40;;;19.90;45.20;;;;;;5014468;28;20490;-72
2021/12/19 13:22:19;;;;;;;0.65;0.50;;;19.90;45.20;;;;;;5014546;28;20053;-72
2021/12/19 13:24:47;;;;;;;0.73;0.40;;;19.90;45.20;;;;;;5014227;28;20033;-72
2021/12/19 13:27:17;;;;;;;0.98;0.40;;;19.90;45.20;;;;;;5014394;28;20049;-72
2021/12/19 13:30:04;;;;;;;1.67;0.50;;;19.90;45.20;;;;;;5014353;28;20508;-72
2021/12/19 13:32:39;;;;;;;0.85;0.30;;;19.90;45.20;;;;;;5014359;28;20032;-72
2021/12/19 13:35:11;;;;;;;1.05;0.52;;;19.90;45.20;;;;;;5014166;28;20474;-72
2021/12/19 13:37:46;;;;;;;0.60;0.40;;;19.90;45.20;;;;;;5014200;28;20101;-72
2021/12/19 13:40:14;;;;;;;0.70;0.40;;;19.90;45.20;;;;;;5012853;28;20021;-72
2021/12/19 13:42:46;;;;;;;0.30;0.30;;;19.90;45.20;;;;;;5012935;28;20022;-72
2021/12/19 13:45:33;;;;;;;0.50;0.40;;;19.90;45.20;;;;;;5014027;28;20417;-72
2021/12/19 13:48:01;;;;;;;0.98;0.50;;;19.90;45.20;;;;;;5013960;28;20049;-72
2021/12/19 13:50:29;;;;;;;0.50;0.38;;;19.90;45.20;;;;;;5013897;28;20013;-72
2021/12/19 13:52:54;;;;;;;0.63;0.40;;;19.90;45.20;;;;;;5013823;28;20101;-72
2021/12/19 13:55:20;;;;;;;1.63;0.40;;;19.90;45.20;;;;;;4994347;28;20130;-72
2021/12/19 13:57:46;;;;;;;0.60;0.40;;;19.90;45.20;;;;;;4994140;28;20026;-72
2021/12/19 14:00:38;;;;;;;0.60;0.40;;;19.90;45.20;;;;;;4994157;28;20503;-72
2021/12/19 14:03:04;;;;;;;0.40;0.40;;;19.90;45.00;;;;;;4996048;28;20084;-72
2021/12/19 14:05:39;;;;;;;0.40;0.40;;;19.90;45.30;;;;;;5013707;28;20049;-72
2021/12/19 14:08:17;;;;;;;0.70;0.30;;;19.90;45.20;;;;;;5013553;28;20073;-72